Time;durP1;ratioP1;P1;durP2;ratioP2;P2;SDS_P1;SDS_P2;PMS_P1;PMS_P2;Temp;Humidity;BMP_temperature;BMP_pressure;BME280_temperature;BME280_humidity;BME280_pressure;Samples;Min_cycle;Max_cycle;Signal;HPM_P1;HPM_P2
2023/01/29 05:06:10;;;;;;;4.53;3.70;;;0.60;99.90;;;;;;5017734;28;20230;-68
2023/01/29 05:08:38;;;;;;;6.55;3.08;;;0.60;99.90;;;;;;5030078;28;20181;-69
2023/01/29 05:11:04;;;;;;;4.95;3.63;;;0.60;99.90;;;;;;5036523;28;20204;-69
2023/01/29 05:13:31;;;;;;;3.90;3.17;;;0.60;99.90;;;;;;5022232;28;20190;-68
2023/01/29 05:16:03;;;;;;;4.53;4.10;;;0.60;99.90;;;;;;4996962;28;20167;-68
2023/01/29 05:18:30;;;;;;;4.35;3.28;;;0.60;99.90;;;;;;5007698;28;20295;-67
2023/01/29 05:21:00;;;;;;;4.05;3.65;;;0.60;99.90;;;;;;5016209;28;20624;-69
2023/01/29 05:23:25;;;;;;;3.97;2.83;;;0.70;99.90;;;;;;5004352;28;20282;-69
2023/01/29 05:25:51;;;;;;;2.90;2.27;;;0.60;99.90;;;;;;4995347;28;20683;-69
2023/01/29 05:28:17;;;;;;;4.27;3.63;;;0.70;99.90;;;;;;5004438;28;20182;-69
2023/01/29 05:30:48;;;;;;;5.45;4.47;;;0.70;99.90;;;;;;5016343;28;20767;-68
2023/01/29 05:33:19;;;;;;;4.55;4.25;;;0.70;99.90;;;;;;5006884;28;20187;-69
2023/01/29 05:35:45;;;;;;;5.45;4.68;;;0.70;99.90;;;;;;4995791;28;20198;-68
2023/01/29 05:38:11;;;;;;;4.03;3.22;;;0.70;99.90;;;;;;5003420;28;20205;-68
2023/01/29 05:40:37;;;;;;;7.13;3.97;;;0.70;99.90;;;;;;5016019;28;20167;-69
2023/01/29 05:43:04;;;;;;;4.18;3.58;;;0.70;99.90;;;;;;5009441;28;20419;-68
2023/01/29 05:45:30;;;;;;;4.90;3.72;;;0.70;99.90;;;;;;4996142;28;20242;-69
2023/01/29 05:47:57;;;;;;;6.07;4.28;;;0.70;99.90;;;;;;5000578;28;20692;-69
2023/01/29 05:50:24;;;;;;;5.45;3.55;;;0.60;99.90;;;;;;5015385;28;20233;-68
2023/01/29 05:52:54;;;;;;;4.75;3.58;;;0.60;99.90;;;;;;5012578;28;20171;-67
2023/01/29 05:55:20;;;;;;;3.33;3.03;;;0.50;99.90;;;;;;4996120;28;20195;-69
2023/01/29 05:57:45;;;;;;;5.70;3.80;;;0.50;99.90;;;;;;4997259;28;20213;-68
2023/01/29 06:00:11;;;;;;;4.37;3.53;;;0.50;99.90;;;;;;4995899;28;20207;-69
2023/01/29 06:02:37;;;;;;;7.68;3.72;;;0.50;99.90;;;;;;4996399;28;20247;-69
2023/01/29 06:05:03;;;;;;;5.00;4.50;;;0.50;99.90;;;;;;5014998;28;20194;-67
2023/01/29 06:07:29;;;;;;;4.13;3.50;;;0.50;99.90;;;;;;5008521;28;20422;-68
2023/01/29 06:09:54;;;;;;;3.70;3.37;;;0.50;99.90;;;;;;4995584;28;20757;-68
2023/01/29 06:12:20;;;;;;;13.50;4.33;;;0.50;99.90;;;;;;4994242;28;20179;-68
2023/01/29 06:14:46;;;;;;;2.70;2.50;;;0.50;99.90;;;;;;5010611;28;20568;-68
2023/01/29 06:17:11;;;;;;;4.27;3.80;;;0.50;99.90;;;;;;5010991;28;20230;-69
2023/01/29 06:19:37;;;;;;;6.20;3.33;;;0.50;99.90;;;;;;4994982;28;20195;-68
2023/01/29 06:22:02;;;;;;;4.03;3.63;;;0.50;99.90;;;;;;4995447;28;20171;-68
2023/01/29 06:24:28;;;;;;;5.33;3.47;;;0.50;99.90;;;;;;5013884;28;20644;-69
2023/01/29 06:26:54;;;;;;;3.40;3.03;;;0.50;99.90;;;;;;5014304;28;20194;-69
2023/01/29 06:29:19;;;;;;;4.70;4.13;;;0.50;99.90;;;;;;5013851;28;20422;-69
2023/01/29 06:31:45;;;;;;;4.43;3.73;;;0.50;99.90;;;;;;5029199;28;20185;-69
2023/01/29 06:34:10;;;;;;;4.50;4.00;;;0.50;99.90;;;;;;4997796;28;20199;-69
2023/01/29 06:36:36;;;;;;;4.17;3.87;;;0.50;99.90;;;;;;5013962;28;20174;-68
2023/01/29 06:39:02;;;;;;;5.87;3.90;;;0.50;99.90;;;;;;4996223;28;20712;-69
2023/01/29 06:41:28;;;;;;;3.97;3.65;;;0.50;99.90;;;;;;4994490;28;20210;-68
2023/01/29 06:43:54;;;;;;;3.47;2.80;;;0.50;99.90;;;;;;5006762;28;20222;-68
2023/01/29 06:46:19;;;;;;;3.90;3.50;;;0.50;99.90;;;;;;5012513;28;20174;-68
2023/01/29 06:48:45;;;;;;;6.17;3.23;;;0.50;99.90;;;;;;4998138;28;20180;-69
2023/01/29 06:51:11;;;;;;;3.40;3.10;;;0.60;99.90;;;;;;4993943;28;20427;-69
2023/01/29 06:53:38;;;;;;;4.00;3.07;;;0.60;99.90;;;;;;5004133;28;20182;-68
2023/01/29 06:56:05;;;;;;;4.72;4.15;;;0.60;99.90;;;;;;5010867;28;20429;-69
2023/01/29 06:58:30;;;;;;;7.95;4.25;;;0.50;99.90;;;;;;5003009;28;20201;-68
2023/01/29 07:01:07;;;;;;;4.87;4.30;;;0.50;99.90;;;;;;5013234;28;20186;-69
2023/01/29 07:03:33;;;;;;;3.47;3.17;;;0.50;99.90;;;;;;5004199;28;20171;-68
2023/01/29 07:05:58;;;;;;;5.13;4.40;;;0.40;99.90;;;;;;4945031;28;1475680;-67
2023/01/29 07:08:24;;;;;;;5.30;4.70;;;0.40;99.90;;;;;;4993984;28;20233;-67
2023/01/29 07:10:49;;;;;;;6.57;4.00;;;0.40;99.90;;;;;;5004044;28;20253;-68
2023/01/29 07:13:15;;;;;;;4.30;3.90;;;0.40;99.90;;;;;;5002822;28;20652;-67
2023/01/29 07:15:41;;;;;;;5.50;3.77;;;0.40;99.90;;;;;;5004899;28;20262;-67
2023/01/29 07:18:11;;;;;;;4.18;3.30;;;0.40;99.90;;;;;;5003831;28;20179;-68
2023/01/29 07:20:40;;;;;;;4.10;3.40;;;0.40;99.90;;;;;;5002101;28;20219;-68
2023/01/29 07:23:11;;;;;;;6.20;4.45;;;0.40;99.90;;;;;;5003111;28;20644;-68
2023/01/29 07:25:36;;;;;;;7.63;4.95;;;0.40;99.90;;;;;;5002543;28;20186;-67
2023/01/29 07:28:02;;;;;;;6.03;3.73;;;0.40;99.90;;;;;;5001907;28;20182;-68
2023/01/29 07:30:28;;;;;;;5.75;4.60;;;0.50;99.90;;;;;;5002558;28;20199;-68
2023/01/29 07:32:54;;;;;;;4.60;4.22;;;0.50;99.90;;;;;;4999563;28;20633;-68
2023/01/29 07:35:20;;;;;;;5.70;3.90;;;0.50;99.90;;;;;;5012633;28;20194;-68
2023/01/29 07:37:49;;;;;;;4.47;3.97;;;0.50;99.90;;;;;;5012958;28;20178;-69
2023/01/29 07:40:15;;;;;;;6.47;4.00;;;0.50;99.90;;;;;;4996916;28;20334;-70
2023/01/29 07:42:43;;;;;;;3.23;2.93;;;0.60;99.90;;;;;;5006723;28;20206;-69
2023/01/29 07:45:09;;;;;;;4.45;3.97;;;0.60;99.90;;;;;;5001301;28;20187;-68
2023/01/29 07:47:35;;;;;;;8.05;3.30;;;0.60;99.90;;;;;;4996236;28;20232;-67
2023/01/29 07:50:01;;;;;;;4.63;3.93;;;0.60;99.90;;;;;;4991616;28;20191;-69
2023/01/29 07:52:29;;;;;;;4.13;3.53;;;0.70;99.90;;;;;;4991625;28;20426;-67
2023/01/29 07:54:55;;;;;;;4.47;3.42;;;0.70;99.90;;;;;;4993317;28;20446;-70
2023/01/29 07:57:21;;;;;;;5.13;3.80;;;0.80;99.90;;;;;;4996050;28;20645;-73
2023/01/29 07:59:47;;;;;;;4.20;3.80;;;0.80;99.90;;;;;;5008970;28;20480;-72
2023/01/29 08:02:12;;;;;;;6.27;4.40;;;0.80;99.90;;;;;;4987828;28;20796;-71
2023/01/29 08:04:38;;;;;;;8.23;3.57;;;0.80;99.90;;;;;;4993561;28;20257;-72
2023/01/29 08:07:04;;;;;;;6.53;4.20;;;0.80;99.90;;;;;;4995304;28;20438;-75
2023/01/29 08:09:30;;;;;;;4.10;3.73;;;0.80;99.90;;;;;;5003572;28;20209;-71
2023/01/29 08:11:56;;;;;;;3.25;2.95;;;0.90;99.90;;;;;;4995966;28;20565;-73
2023/01/29 08:14:22;;;;;;;5.70;3.95;;;0.90;99.90;;;;;;4992961;28;20218;-75
2023/01/29 08:16:49;;;;;;;6.82;4.32;;;1.00;99.90;;;;;;4984422;28;20246;-72
2023/01/29 08:19:15;;;;;;;3.80;3.50;;;1.00;99.90;;;;;;4972984;28;20226;-75
2023/01/29 08:21:40;;;;;;;4.40;3.47;;;1.10;99.90;;;;;;4974197;28;20168;-73
2023/01/29 08:24:06;;;;;;;6.80;4.40;;;1.00;99.90;;;;;;4973687;28;20228;-69
2023/01/29 08:26:32;;;;;;;4.40;3.93;;;1.10;99.90;;;;;;5000575;28;20648;-71
2023/01/29 08:28:58;;;;;;;6.20;5.40;;;1.10;99.90;;;;;;4996105;28;20189;-73
2023/01/29 08:31:23;;;;;;;5.57;4.10;;;1.10;99.90;;;;;;4993394;28;20481;-69
2023/01/29 08:33:49;;;;;;;4.67;4.27;;;1.10;99.90;;;;;;4992929;28;20503;-69
2023/01/29 08:36:14;;;;;;;3.83;3.53;;;1.20;99.90;;;;;;5003783;28;20186;-70
2023/01/29 08:38:40;;;;;;;5.37;3.50;;;1.20;99.90;;;;;;5011926;28;20557;-71
2023/01/29 08:41:06;;;;;;;3.80;3.40;;;1.30;99.90;;;;;;5007061;28;20209;-70
2023/01/29 08:43:34;;;;;;;4.88;3.65;;;1.30;99.90;;;;;;5013622;28;20402;-68
2023/01/29 08:45:59;;;;;;;4.85;4.32;;;1.40;99.90;;;;;;5015151;28;20175;-72
2023/01/29 08:48:25;;;;;;;4.50;4.07;;;1.40;99.90;;;;;;5006591;28;20233;-70
2023/01/29 08:50:50;;;;;;;4.40;3.80;;;1.40;99.90;;;;;;5002644;28;20176;-71
2023/01/29 08:53:18;;;;;;;5.27;4.17;;;1.40;99.90;;;;;;5005489;28;20198;-69
2023/01/29 08:55:45;;;;;;;5.10;4.22;;;1.40;99.90;;;;;;5007456;28;20594;-73
2023/01/29 08:58:11;;;;;;;6.53;4.25;;;1.40;99.90;;;;;;5014435;28;20182;-71
2023/01/29 09:00:37;;;;;;;3.80;3.50;;;1.40;99.90;;;;;;5009415;28;20175;-72
2023/01/29 09:03:03;;;;;;;3.22;2.80;;;1.40;99.90;;;;;;5012212;28;20413;-66
2023/01/29 09:05:29;;;;;;;5.90;4.15;;;1.40;99.90;;;;;;5011900;28;20244;-69
2023/01/29 09:07:58;;;;;;;4.47;4.07;;;1.40;99.90;;;;;;5016060;28;20170;-67
2023/01/29 09:10:24;;;;;;;5.53;3.88;;;1.50;99.90;;;;;;5015293;28;20226;-67
2023/01/29 09:12:50;;;;;;;4.38;3.97;;;1.50;99.90;;;;;;5006505;28;20185;-66
2023/01/29 09:15:17;;;;;;;4.00;3.70;;;1.50;99.90;;;;;;5003054;28;20195;-69
2023/01/29 09:17:42;;;;;;;5.72;3.65;;;1.60;99.90;;;;;;4999963;28;20175;-67
2023/01/29 09:20:09;;;;;;;2.90;2.70;;;1.70;99.90;;;;;;5006706;28;20603;-70
2023/01/29 09:22:34;;;;;;;4.93;4.60;;;1.80;99.90;;;;;;5013747;28;20189;-68
2023/01/29 09:25:00;;;;;;;5.80;4.10;;;1.90;99.90;;;;;;4996237;28;20266;-69
2023/01/29 09:27:26;;;;;;;4.60;3.33;;;1.90;99.90;;;;;;4996424;28;20660;-68
2023/01/29 09:29:51;;;;;;;4.10;3.43;;;2.10;99.90;;;;;;5004746;28;20191;-69
2023/01/29 09:32:17;;;;;;;4.73;4.27;;;2.00;99.90;;;;;;4998867;28;20656;-69
2023/01/29 09:34:42;;;;;;;4.40;3.23;;;2.10;99.90;;;;;;4999879;28;20563;-69
2023/01/29 09:37:08;;;;;;;4.03;3.53;;;2.20;99.90;;;;;;5002292;28;20261;-65
2023/01/29 09:39:34;;;;;;;3.40;3.20;;;2.20;99.90;;;;;;5005122;28;20202;-66
2023/01/29 09:42:10;;;;;;;5.07;3.57;;;2.10;99.90;;;;;;5007535;28;20183;-66
2023/01/29 09:44:47;;;;;;;4.32;3.83;;;2.20;99.90;;;;;;4989643;28;20215;-66
2023/01/29 09:47:15;;;;;;;7.57;5.32;;;2.10;99.90;;;;;;4992592;28;20167;-67
2023/01/29 09:50:08;;;;;;;4.22;3.83;;;2.10;99.90;;;;;;4997112;28;20238;-68
2023/01/29 09:52:41;;;;;;;6.50;3.70;;;2.10;99.90;;;;;;4989886;28;20187;-66
2023/01/29 09:55:25;;;;;;;3.65;3.30;;;2.20;99.90;;;;;;4985054;28;20534;-66
2023/01/29 09:58:13;;;;;;;5.60;4.55;;;2.10;99.90;;;;;;4993537;28;20211;-66
2023/01/29 10:01:09;;;;;;;6.32;3.85;;;2.20;99.90;;;;;;4993905;28;20331;-66
2023/01/29 10:04:00;;;;;;;3.35;3.03;;;2.30;99.90;;;;;;5012326;28;20233;-68
2023/01/29 10:06:34;;;;;;;4.60;4.20;;;2.60;99.90;;;;;;5017718;28;20743;-69
2023/01/29 10:09:28;;;;;;;4.55;4.03;;;2.90;99.90;;;;;;5000950;28;20581;-69
2023/01/29 10:12:05;;;;;;;3.47;3.05;;;3.20;99.90;;;;;;4995783;28;20200;-69
2023/01/29 10:15:19;;;;;;;4.80;3.40;;;3.50;99.90;;;;;;4995237;28;20207;-69
2023/01/29 10:18:18;;;;;;;3.97;3.60;;;3.70;99.90;;;;;;4971024;28;20203;-71
2023/01/29 10:21:18;;;;;;;7.82;4.70;;;4.00;99.90;;;;;;4999775;28;20186;-72
2023/01/29 10:24:03;;;;;;;6.10;4.38;;;4.10;99.90;;;;;;4999267;28;20522;-73
2023/01/29 10:26:34;;;;;;;6.85;6.25;;;4.10;99.90;;;;;;5005449;28;20667;-71
2023/01/29 10:29:05;;;;;;;4.40;4.00;;;3.90;99.90;;;;;;4992998;28;20200;-72
2023/01/29 10:31:37;;;;;;;5.15;4.75;;;3.80;99.90;;;;;;4985761;28;20201;-74
2023/01/29 10:34:23;;;;;;;4.75;4.22;;;3.60;99.90;;;;;;4975944;28;20241;-70
2023/01/29 10:36:49;;;;;;;5.85;4.88;;;3.40;99.90;;;;;;4989451;28;20194;-74
2023/01/29 10:39:21;;;;;;;5.13;4.63;;;3.30;99.90;;;;;;4993319;28;20609;-73
2023/01/29 10:42:22;;;;;;;6.78;6.18;;;3.30;99.90;;;;;;4982355;28;20230;-71
2023/01/29 10:44:56;;;;;;;6.93;5.80;;;3.30;99.90;;;;;;4953390;28;20267;-75
2023/01/29 10:47:25;;;;;;;7.78;4.53;;;3.50;99.90;;;;;;4972191;28;20183;-74
2023/01/29 10:50:12;;;;;;;7.00;4.82;;;3.60;99.90;;;;;;4957659;28;20204;-74
2023/01/29 10:52:56;;;;;;;5.50;3.90;;;3.70;99.90;;;;;;4972435;28;20262;-75
2023/01/29 10:56:11;;;;;;;5.40;4.30;;;3.80;99.90;;;;;;4992786;28;20199;-74
2023/01/29 10:58:55;;;;;;;4.95;4.28;;;3.80;99.90;;;;;;4973646;28;20620;-73
2023/01/29 11:01:21;;;;;;;6.63;4.40;;;3.80;99.90;;;;;;4971305;28;20336;-77
2023/01/29 11:03:56;;;;;;;6.75;5.32;;;3.80;99.90;;;;;;4992363;28;20537;-75
2023/01/29 11:06:33;;;;;;;5.95;5.45;;;3.80;99.90;;;;;;4988701;28;20192;-77
2023/01/29 11:09:20;;;;;;;5.55;5.03;;;3.90;99.90;;;;;;4974930;28;20185;-76
2023/01/29 11:11:55;;;;;;;6.05;5.47;;;4.00;99.90;;;;;;4975197;28;20286;-76
2023/01/29 11:14:27;;;;;;;6.05;5.45;;;4.00;99.90;;;;;;4977484;28;20231;-73
2023/01/29 11:16:54;;;;;;;5.95;4.80;;;4.00;99.90;;;;;;4992355;28;20188;-77
2023/01/29 11:19:35;;;;;;;5.90;5.30;;;4.00;99.90;;;;;;5008860;28;20724;-73
2023/01/29 11:22:03;;;;;;;5.50;4.90;;;3.90;99.90;;;;;;5012432;28;20196;-74
2023/01/29 11:24:29;;;;;;;4.43;3.67;;;3.70;99.90;;;;;;5013512;28;20221;-77
2023/01/29 11:26:58;;;;;;;4.45;3.78;;;3.60;99.90;;;;;;4995476;28;20176;-71
2023/01/29 11:29:26;;;;;;;6.68;4.78;;;3.60;99.90;;;;;;4994439;28;20167;-77
2023/01/29 11:31:52;;;;;;;4.82;4.32;;;3.70;99.90;;;;;;5011848;28;20316;-76
2023/01/29 11:34:24;;;;;;;5.10;4.60;;;3.80;99.90;;;;;;5013903;28;20273;-75
2023/01/29 11:37:04;;;;;;;8.35;4.65;;;3.80;99.90;;;;;;4998713;28;20478;-76
2023/01/29 11:39:31;;;;;;;8.48;6.43;;;3.90;99.90;;;;;;4994347;28;20237;-77
2023/01/29 11:42:02;;;;;;;5.80;5.25;;;3.90;99.90;;;;;;5010834;28;20175;-73
2023/01/29 11:44:40;;;;;;;5.72;4.63;;;4.00;99.90;;;;;;5013266;28;20262;-76
2023/01/29 11:47:20;;;;;;;5.30;4.22;;;4.00;99.90;;;;;;4998101;28;20662;-74
2023/01/29 11:49:52;;;;;;;6.20;5.57;;;4.00;99.90;;;;;;4995120;28;20179;-75
2023/01/29 11:52:21;;;;;;;5.43;4.80;;;4.00;99.90;;;;;;5014700;28;20182;-71
2023/01/29 11:54:47;;;;;;;6.18;4.70;;;4.10;99.90;;;;;;4994544;28;20279;-76
2023/01/29 11:57:34;;;;;;;6.80;5.37;;;4.10;99.90;;;;;;4995637;28;20254;-76
2023/01/29 12:00:21;;;;;;;5.32;4.82;;;4.10;99.90;;;;;;4974168;28;20208;-81
2023/01/29 12:02:55;;;;;;;6.13;5.30;;;4.10;99.90;;;;;;4979065;28;20176;-76
2023/01/29 12:05:26;;;;;;;8.45;6.78;;;4.10;99.90;;;;;;5012511;28;20237;-76
2023/01/29 12:07:58;;;;;;;8.25;4.90;;;4.20;99.90;;;;;;5009840;28;20179;-76
2023/01/29 12:10:41;;;;;;;5.55;4.93;;;4.00;99.90;;;;;;4989447;28;20191;-75
2023/01/29 12:13:09;;;;;;;5.32;4.90;;;4.00;99.90;;;;;;5016508;28;20656;-76
2023/01/29 12:15:40;;;;;;;5.40;4.88;;;4.10;99.90;;;;;;5016184;28;20204;-76
2023/01/29 12:18:19;;;;;;;6.75;5.57;;;4.20;99.90;;;;;;5005201;28;20187;-76
2023/01/29 12:20:54;;;;;;;7.97;5.72;;;4.30;99.90;;;;;;4998014;28;20167;-74
2023/01/29 12:23:38;;;;;;;7.20;4.65;;;4.30;99.90;;;;;;5009272;28;20649;-78
2023/01/29 12:26:16;;;;;;;6.22;4.20;;;4.30;99.90;;;;;;5017461;28;20181;-76
2023/01/29 12:28:49;;;;;;;5.85;5.13;;;4.40;99.90;;;;;;5002895;28;20179;-73
2023/01/29 12:31:37;;;;;;;6.93;5.68;;;4.40;99.90;;;;;;4998127;28;20175;-75
2023/01/29 12:34:25;;;;;;;6.50;5.65;;;4.40;99.90;;;;;;4978002;28;20284;-73
2023/01/29 12:36:58;;;;;;;8.15;5.25;;;4.40;99.90;;;;;;4994467;28;20660;-74
2023/01/29 12:39:24;;;;;;;5.25;4.30;;;4.50;99.90;;;;;;5016848;28;20200;-78
2023/01/29 12:41:56;;;;;;;5.87;4.73;;;4.50;99.90;;;;;;5014758;28;20177;-75
2023/01/29 12:44:32;;;;;;;5.43;4.88;;;4.40;99.90;;;;;;4997946;28;20448;-77
2023/01/29 12:47:01;;;;;;;5.15;4.65;;;4.40;99.90;;;;;;5017231;28;20179;-74
2023/01/29 12:49:32;;;;;;;5.75;5.15;;;4.50;99.90;;;;;;5014130;28;20178;-75
2023/01/29 12:52:09;;;;;;;6.22;5.60;;;4.50;99.90;;;;;;4997639;28;20211;-77
2023/01/29 12:54:48;;;;;;;6.53;5.25;;;4.60;99.90;;;;;;4998718;28;20276;-76
2023/01/29 12:57:33;;;;;;;4.78;4.28;;;4.70;99.90;;;;;;5015931;28;20229;-72
2023/01/29 13:00:05;;;;;;;7.47;4.93;;;4.80;99.90;;;;;;4993642;28;20202;-74
2023/01/29 13:02:47;;;;;;;5.70;4.95;;;4.90;99.90;;;;;;4976888;28;20176;-74
2023/01/29 13:05:26;;;;;;;6.55;4.75;;;5.00;99.90;;;;;;5011476;28;20199;-74
2023/01/29 13:08:16;;;;;;;4.85;3.65;;;5.20;99.90;;;;;;4993692;28;20191;-73
2023/01/29 13:10:48;;;;;;;5.55;4.90;;;5.00;99.90;;;;;;5000656;28;20187;-74
2023/01/29 13:13:30;;;;;;;7.10;5.28;;;5.00;99.90;;;;;;5001119;28;20186;-72
2023/01/29 13:15:56;;;;;;;7.35;5.70;;;4.80;99.90;;;;;;4984017;28;20191;-73
2023/01/29 13:18:40;;;;;;;5.55;4.18;;;4.70;99.90;;;;;;4996700;28;20259;-72
2023/01/29 13:21:16;;;;;;;5.45;4.63;;;4.60;99.90;;;;;;4997842;28;20163;-72
2023/01/29 13:23:50;;;;;;;7.05;5.55;;;4.50;99.90;;;;;;5011009;28;20672;-73
2023/01/29 13:26:20;;;;;;;6.10;4.93;;;4.50;99.90;;;;;;4998150;28;20178;-71
2023/01/29 13:28:46;;;;;;;7.50;5.45;;;4.50;99.90;;;;;;5003006;28;20685;-71
2023/01/29 13:31:32;;;;;;;5.88;5.28;;;4.40;99.90;;;;;;5002647;28;20184;-68
2023/01/29 13:34:30;;;;;;;4.97;3.88;;;4.30;99.90;;;;;;5008284;28;20215;-72
2023/01/29 13:37:14;;;;;;;7.63;5.82;;;4.20;99.90;;;;;;4980183;28;20662;-70
2023/01/29 13:39:47;;;;;;;8.18;5.93;;;4.30;99.90;;;;;;4996656;28;20740;-74
2023/01/29 13:42:48;;;;;;;8.30;6.20;;;4.20;99.90;;;;;;4996717;28;20586;-68
2023/01/29 13:45:26;;;;;;;4.38;3.92;;;4.20;99.90;;;;;;4977950;28;20226;-70
2023/01/29 13:47:52;;;;;;;5.93;5.32;;;4.20;99.90;;;;;;5001962;28;20190;-69
2023/01/29 13:50:27;;;;;;;8.80;5.60;;;4.10;99.90;;;;;;4997564;28;20177;-66
2023/01/29 13:52:56;;;;;;;4.72;3.78;;;4.20;99.90;;;;;;5024330;28;20203;-71
2023/01/29 13:55:30;;;;;;;5.97;5.32;;;4.30;99.90;;;;;;5002006;28;20230;-70
2023/01/29 13:57:57;;;;;;;5.45;4.53;;;4.40;99.90;;;;;;5014827;28;20181;-68
2023/01/29 14:00:43;;;;;;;5.75;5.10;;;4.30;99.90;;;;;;4995806;28;20627;-73
2023/01/29 14:03:10;;;;;;;5.55;4.95;;;4.20;99.90;;;;;;4935852;29;20285;-71
2023/01/29 14:05:43;;;;;;;11.30;5.13;;;4.20;99.90;;;;;;4932962;29;20321;-72
2023/01/29 14:08:08;;;;;;;8.25;5.55;;;4.10;99.90;;;;;;4917512;29;20196;-75
2023/01/29 14:10:36;;;;;;;6.53;5.10;;;4.10;99.90;;;;;;4928335;29;20761;-72
2023/01/29 14:13:22;;;;;;;5.25;4.57;;;4.00;99.90;;;;;;4937350;29;20185;-74
2023/01/29 14:16:00;;;;;;;6.00;4.63;;;4.00;99.90;;;;;;4924846;29;20291;-79
2023/01/29 14:18:28;;;;;;;5.40;4.70;;;4.00;99.90;;;;;;4933950;29;20186;-74
2023/01/29 14:20:58;;;;;;;5.88;4.63;;;3.90;99.90;;;;;;4928089;29;20190;-72
2023/01/29 14:23:40;;;;;;;7.70;4.57;;;3.90;99.90;;;;;;4916439;29;20266;-71
2023/01/29 14:26:20;;;;;;;5.70;4.60;;;3.90;99.90;;;;;;4931473;29;20173;-73
2023/01/29 14:29:24;;;;;;;5.32;4.45;;;3.80;99.90;;;;;;4935452;29;20656;-72
2023/01/29 14:32:07;;;;;;;6.55;4.40;;;3.90;99.90;;;;;;4940477;29;20185;-67
2023/01/29 14:34:43;;;;;;;7.65;4.43;;;3.70;99.90;;;;;;4935332;29;20217;-71
2023/01/29 14:37:35;;;;;;;9.70;5.18;;;3.60;99.90;;;;;;4943077;29;20195;-67
2023/01/29 14:40:14;;;;;;;5.65;4.82;;;3.60;99.90;;;;;;4954989;28;20254;-70
2023/01/29 14:43:00;;;;;;;8.48;5.90;;;3.60;99.90;;;;;;4984379;28;20583;-72
2023/01/29 14:45:43;;;;;;;5.80;5.20;;;3.60;99.90;;;;;;4991757;28;20242;-69
2023/01/29 14:48:09;;;;;;;7.13;5.00;;;3.50;99.90;;;;;;4992120;28;20171;-69
2023/01/29 14:50:34;;;;;;;7.73;5.40;;;3.40;99.90;;;;;;4975836;28;20345;-74
2023/01/29 14:53:43;;;;;;;6.00;5.40;;;3.30;99.90;;;;;;4992269;28;20179;-75
2023/01/29 14:56:14;;;;;;;6.18;4.70;;;3.30;99.90;;;;;;4953574;29;20606;-71
2023/01/29 14:58:49;;;;;;;6.47;5.43;;;3.30;99.90;;;;;;4953250;29;20225;-71
2023/01/29 15:01:24;;;;;;;5.45;4.95;;;3.40;99.90;;;;;;4951435;29;20188;-69
2023/01/29 15:04:01;;;;;;;7.13;5.15;;;3.50;99.90;;;;;;4951684;28;20216;-75
2023/01/29 15:06:33;;;;;;;6.30;5.28;;;3.40;99.90;;;;;;4953221;29;20321;-73
2023/01/29 15:09:29;;;;;;;8.05;5.15;;;3.40;99.90;;;;;;4934449;29;20209;-75
2023/01/29 15:12:25;;;;;;;6.75;4.80;;;3.40;99.90;;;;;;4950558;29;20214;-71
2023/01/29 15:15:23;;;;;;;6.18;5.32;;;3.30;99.90;;;;;;4944729;29;20221;-75
2023/01/29 15:18:00;;;;;;;9.93;7.30;;;3.30;99.90;;;;;;4952570;29;20188;-73
2023/01/29 15:20:34;;;;;;;8.88;6.45;;;3.20;99.90;;;;;;4960240;28;20215;-70
2023/01/29 15:23:02;;;;;;;9.82;6.30;;;3.30;99.90;;;;;;4972553;28;20598;-72
2023/01/29 15:25:34;;;;;;;8.82;6.00;;;3.30;99.90;;;;;;4952275;28;20212;-75
2023/01/29 15:28:02;;;;;;;5.97;5.32;;;3.30;99.90;;;;;;4945148;28;20192;-71
2023/01/29 15:30:32;;;;;;;8.30;4.82;;;3.30;99.90;;;;;;4965505;28;20191;-67
2023/01/29 15:32:59;;;;;;;8.10;5.80;;;3.30;99.90;;;;;;4978462;28;20580;-69
2023/01/29 15:35:40;;;;;;;7.38;4.95;;;3.20;99.90;;;;;;5013647;28;20245;-74
2023/01/29 15:38:13;;;;;;;6.15;5.55;;;3.10;99.90;;;;;;5012718;28;20229;-76
2023/01/29 15:40:39;;;;;;;6.28;5.47;;;3.00;99.90;;;;;;5005592;28;20186;-72
2023/01/29 15:43:22;;;;;;;8.97;5.03;;;3.00;99.90;;;;;;4988237;28;20179;-70
2023/01/29 15:45:52;;;;;;;6.80;5.72;;;2.90;99.90;;;;;;4990015;28;20593;-70
2023/01/29 15:48:35;;;;;;;8.38;5.78;;;2.80;99.90;;;;;;4995494;28;20187;-73
2023/01/29 15:51:04;;;;;;;8.38;5.88;;;2.70;99.90;;;;;;4994832;28;20179;-74
2023/01/29 15:53:48;;;;;;;6.72;5.55;;;2.60;99.90;;;;;;4979011;28;20176;-70
2023/01/29 15:56:18;;;;;;;9.25;5.70;;;2.60;99.90;;;;;;5003992;28;20175;-66
2023/01/29 15:58:47;;;;;;;8.32;5.93;;;2.50;99.90;;;;;;4994919;28;20549;-68
2023/01/29 16:01:13;;;;;;;5.95;5.22;;;2.40;99.90;;;;;;5001265;28;20202;-65
2023/01/29 16:03:40;;;;;;;6.47;5.83;;;2.40;99.90;;;;;;4986062;28;20650;-67
2023/01/29 16:06:07;;;;;;;7.45;6.10;;;2.40;99.90;;;;;;5005878;28;20525;-66
2023/01/29 16:08:33;;;;;;;6.32;5.82;;;2.30;99.90;;;;;;5029497;28;20179;-65
2023/01/29 16:11:03;;;;;;;6.10;5.50;;;2.30;99.90;;;;;;5015356;28;20166;-67
2023/01/29 16:13:32;;;;;;;4.75;4.28;;;2.20;99.90;;;;;;5014080;28;20250;-67
2023/01/29 16:16:13;;;;;;;9.35;5.45;;;2.20;99.90;;;;;;5002295;28;20171;-66
2023/01/29 16:18:45;;;;;;;7.03;4.00;;;2.10;99.90;;;;;;5003252;28;20204;-69
2023/01/29 16:21:27;;;;;;;8.45;5.90;;;2.10;99.90;;;;;;5014175;28;20169;-68
2023/01/29 16:23:57;;;;;;;6.13;4.75;;;2.00;99.90;;;;;;5002474;28;20195;-68
2023/01/29 16:26:32;;;;;;;8.00;4.65;;;1.90;99.90;;;;;;4993959;28;20174;-68
2023/01/29 16:29:05;;;;;;;5.78;5.28;;;1.90;99.90;;;;;;5004339;28;20182;-67
2023/01/29 16:31:31;;;;;;;10.50;4.68;;;1.80;99.90;;;;;;5001803;28;20176;-67
2023/01/29 16:34:04;;;;;;;6.22;5.25;;;1.60;99.90;;;;;;5003237;28;20256;-67
2023/01/29 16:36:29;;;;;;;9.52;5.60;;;1.60;99.90;;;;;;5013193;28;20171;-67
2023/01/29 16:38:59;;;;;;;9.53;5.10;;;1.50;99.90;;;;;;5011483;28;20268;-68
2023/01/29 16:41:24;;;;;;;6.22;5.07;;;1.50;99.90;;;;;;5013349;28;20506;-68
2023/01/29 16:44:02;;;;;;;7.23;6.53;;;1.40;99.90;;;;;;4993071;28;20209;-67
2023/01/29 16:46:44;;;;;;;5.70;4.70;;;1.30;99.90;;;;;;4992547;28;20235;-67
2023/01/29 16:49:25;;;;;;;6.75;5.40;;;1.30;99.90;;;;;;4998541;28;20289;-67
2023/01/29 16:51:51;;;;;;;7.47;4.68;;;1.20;99.90;;;;;;5006710;28;20189;-67
2023/01/29 16:54:22;;;;;;;10.82;6.65;;;1.20;99.90;;;;;;4994606;28;20199;-66
2023/01/29 16:56:51;;;;;;;9.90;5.93;;;1.10;99.90;;;;;;5003279;28;20253;-67
2023/01/29 16:59:25;;;;;;;10.60;5.80;;;1.10;99.90;;;;;;5013898;28;20202;-67
2023/01/29 17:01:53;;;;;;;12.82;6.05;;;1.10;99.90;;;;;;4996838;28;20183;-68
2023/01/29 17:04:19;;;;;;;7.57;5.55;;;1.00;99.90;;;;;;5006830;28;20214;-67
2023/01/29 17:06:48;;;;;;;14.77;8.15;;;1.00;99.90;;;;;;5011622;28;20183;-68
2023/01/29 17:09:39;;;;;;;11.10;6.50;;;0.90;99.90;;;;;;4995752;28;20183;-66
2023/01/29 17:12:14;;;;;;;8.00;5.00;;;0.90;99.90;;;;;;4989132;28;20190;-67
2023/01/29 17:14:50;;;;;;;10.50;6.80;;;0.80;99.90;;;;;;5005960;28;20202;-72
2023/01/29 17:17:17;;;;;;;6.85;5.68;;;0.80;99.90;;;;;;5010267;28;20179;-70
2023/01/29 17:19:43;;;;;;;8.57;5.85;;;0.70;99.90;;;;;;5006108;28;20230;-69
2023/01/29 17:22:13;;;;;;;11.73;9.00;;;0.70;99.90;;;;;;5016212;28;20210;-68
2023/01/29 17:24:40;;;;;;;8.80;7.65;;;0.70;99.90;;;;;;5003850;28;20203;-67
2023/01/29 17:27:05;;;;;;;9.25;7.75;;;0.60;99.90;;;;;;5004793;28;20532;-68
2023/01/29 17:29:32;;;;;;;12.43;6.30;;;0.60;99.90;;;;;;5005838;28;20188;-70
2023/01/29 17:31:58;;;;;;;11.02;7.85;;;0.60;99.90;;;;;;4998850;28;20185;-66
2023/01/29 17:34:25;;;;;;;7.18;5.78;;;0.50;99.90;;;;;;5009864;28;20252;-69
2023/01/29 17:36:50;;;;;;;8.10;6.05;;;0.50;99.90;;;;;;5007216;28;20182;-67
2023/01/29 17:39:18;;;;;;;7.63;6.13;;;0.50;99.90;;;;;;5003880;28;20194;-69
2023/01/29 17:41:48;;;;;;;10.27;6.38;;;0.40;99.90;;;;;;5006673;28;20875;-67
2023/01/29 17:44:14;;;;;;;8.40;6.35;;;0.40;99.90;;;;;;5005812;28;20673;-68
2023/01/29 17:46:39;;;;;;;7.60;5.80;;;0.40;99.90;;;;;;5005915;28;20193;-65
2023/01/29 17:49:16;;;;;;;10.83;7.30;;;0.40;99.90;;;;;;5003281;28;20187;-66
2023/01/29 17:51:41;;;;;;;7.32;6.53;;;0.40;99.90;;;;;;4994723;28;20192;-68
2023/01/29 17:54:07;;;;;;;6.60;4.97;;;0.30;99.90;;;;;;4997484;28;20192;-67
2023/01/29 17:56:33;;;;;;;9.60;5.83;;;0.30;99.90;;;;;;5006180;28;20177;-68
2023/01/29 17:58:59;;;;;;;9.37;6.77;;;0.30;99.90;;;;;;5005143;28;20538;-68
2023/01/29 18:01:25;;;;;;;10.00;5.97;;;0.30;99.90;;;;;;5005576;28;20237;-68
2023/01/29 18:03:50;;;;;;;10.33;6.60;;;0.20;99.90;;;;;;5006448;28;20180;-70
2023/01/29 18:06:26;;;;;;;6.60;4.67;;;0.20;99.90;;;;;;5014318;28;20183;-68
2023/01/29 18:08:51;;;;;;;5.78;4.63;;;0.20;99.90;;;;;;5014222;28;20166;-69
2023/01/29 18:11:17;;;;;;;9.53;6.17;;;0.20;99.90;;;;;;4998102;28;20183;-67
2023/01/29 18:13:43;;;;;;;7.47;4.70;;;0.10;99.90;;;;;;4996632;28;20402;-68
2023/01/29 18:16:08;;;;;;;11.47;7.47;;;0.10;99.90;;;;;;5013584;28;20179;-67
2023/01/29 18:18:34;;;;;;;11.90;7.00;;;0.10;99.90;;;;;;5005976;28;20676;-66
2023/01/29 18:20:59;;;;;;;18.90;13.00;;;0.10;99.90;;;;;;5008554;28;20222;-67
2023/01/29 18:23:25;;;;;;;17.83;8.80;;;0.10;99.90;;;;;;5004911;28;20186;-65
2023/01/29 18:25:51;;;;;;;19.23;11.73;;;0.00;99.90;;;;;;5006392;28;20243;-65